sensor_id;sensor_type;location;lat;lon;timestamp;temperature;humidity
1415;DHT22;702;49.466;11.086;2022-12-07T00:00:56;3.40;90.30
1415;DHT22;702;49.466;11.086;2022-12-07T00:03:31;3.40;90.00
1415;DHT22;702;49.466;11.086;2022-12-07T00:05:59;3.20;90.50
1415;DHT22;702;49.466;11.086;2022-12-07T00:08:26;3.30;91.00
1415;DHT22;702;49.466;11.086;2022-12-07T00:10:55;3.20;90.70
1415;DHT22;702;49.466;11.086;2022-12-07T00:13:22;3.20;90.90
1415;DHT22;702;49.466;11.086;2022-12-07T00:15:54;3.10;91.40
1415;DHT22;702;49.466;11.086;2022-12-07T00:18:22;3.00;91.70
1415;DHT22;702;49.466;11.086;2022-12-07T00:20:49;3.10;91.40
1415;DHT22;702;49.466;11.086;2022-12-07T00:23:17;3.00;91.60
1415;DHT22;702;49.466;11.086;2022-12-07T00:25:44;3.00;91.80
1415;DHT22;702;49.466;11.086;2022-12-07T00:28:13;3.00;91.70
1415;DHT22;702;49.466;11.086;2022-12-07T00:30:40;3.00;91.80
1415;DHT22;702;49.466;11.086;2022-12-07T00:33:07;2.90;92.20
1415;DHT22;702;49.466;11.086;2022-12-07T00:35:35;2.80;92.50
1415;DHT22;702;49.466;11.086;2022-12-07T00:38:02;2.90;92.90
1415;DHT22;702;49.466;11.086;2022-12-07T00:40:29;2.90;92.30
1415;DHT22;702;49.466;11.086;2022-12-07T00:42:56;2.90;92.70
1415;DHT22;702;49.466;11.086;2022-12-07T00:45:25;2.80;92.60
1415;DHT22;702;49.466;11.086;2022-12-07T00:47:52;2.80;93.00
1415;DHT22;702;49.466;11.086;2022-12-07T00:50:19;2.90;93.50
1415;DHT22;702;49.466;11.086;2022-12-07T00:52:47;2.90;92.50
1415;DHT22;702;49.466;11.086;2022-12-07T00:55:14;2.80;92.70
1415;DHT22;702;49.466;11.086;2022-12-07T00:57:42;2.80;93.30
1415;DHT22;702;49.466;11.086;2022-12-07T01:00:09;2.80;93.20
1415;DHT22;702;49.466;11.086;2022-12-07T01:02:38;2.80;93.30
1415;DHT22;702;49.466;11.086;2022-12-07T01:05:06;2.90;92.90
1415;DHT22;702;49.466;11.086;2022-12-07T01:07:34;2.80;92.80
1415;DHT22;702;49.466;11.086;2022-12-07T01:10:03;2.80;93.00
1415;DHT22;702;49.466;11.086;2022-12-07T01:12:31;2.80;93.50
1415;DHT22;702;49.466;11.086;2022-12-07T01:14:58;2.80;93.00
1415;DHT22;702;49.466;11.086;2022-12-07T01:17:25;2.80;93.30
1415;DHT22;702;49.466;11.086;2022-12-07T01:19:54;2.80;93.40
1415;DHT22;702;49.466;11.086;2022-12-07T01:22:21;2.80;93.00
1415;DHT22;702;49.466;11.086;2022-12-07T01:24:49;2.80;92.80
1415;DHT22;702;49.466;11.086;2022-12-07T01:27:16;2.80;93.30
1415;DHT22;702;49.466;11.086;2022-12-07T01:29:43;2.80;93.20
1415;DHT22;702;49.466;11.086;2022-12-07T01:32:10;2.90;92.80
1415;DHT22;702;49.466;11.086;2022-12-07T01:34:38;2.70;92.50
1415;DHT22;702;49.466;11.086;2022-12-07T01:37:07;2.70;93.20
1415;DHT22;702;49.466;11.086;2022-12-07T01:39:34;2.70;93.70
1415;DHT22;702;49.466;11.086;2022-12-07T01:42:02;2.80;92.80
1415;DHT22;702;49.466;11.086;2022-12-07T01:44:30;2.90;92.70
1415;DHT22;702;49.466;11.086;2022-12-07T01:47:00;2.80;92.60
1415;DHT22;702;49.466;11.086;2022-12-07T01:49:31;2.90;92.60
1415;DHT22;702;49.466;11.086;2022-12-07T01:52:09;2.90;92.30
1415;DHT22;702;49.466;11.086;2022-12-07T01:54:40;3.00;92.00
1415;DHT22;702;49.466;11.086;2022-12-07T01:57:09;2.90;92.00
1415;DHT22;702;49.466;11.086;2022-12-07T01:59:37;2.90;92.10
1415;DHT22;702;49.466;11.086;2022-12-07T02:02:09;2.90;92.30
1415;DHT22;702;49.466;11.086;2022-12-07T02:04:39;2.90;92.10
1415;DHT22;702;49.466;11.086;2022-12-07T02:07:08;2.90;91.70
1415;DHT22;702;49.466;11.086;2022-12-07T02:09:35;3.00;91.80
1415;DHT22;702;49.466;11.086;2022-12-07T02:12:04;2.90;92.20
1415;DHT22;702;49.466;11.086;2022-12-07T02:14:31;3.00;92.00
1415;DHT22;702;49.466;11.086;2022-12-07T02:17:07;3.00;92.00
1415;DHT22;702;49.466;11.086;2022-12-07T02:20:02;3.00;92.10
1415;DHT22;702;49.466;11.086;2022-12-07T02:23:01;3.00;92.20
1415;DHT22;702;49.466;11.086;2022-12-07T02:25:59;2.90;91.60
1415;DHT22;702;49.466;11.086;2022-12-07T02:28:35;2.90;91.50
1415;DHT22;702;49.466;11.086;2022-12-07T02:31:09;2.90;92.30
1415;DHT22;702;49.466;11.086;2022-12-07T02:33:43;2.90;92.40
1415;DHT22;702;49.466;11.086;2022-12-07T02:36:17;2.90;92.50
1415;DHT22;702;49.466;11.086;2022-12-07T02:38:54;3.00;92.00
1415;DHT22;702;49.466;11.086;2022-12-07T02:41:27;2.90;91.70
1415;DHT22;702;49.466;11.086;2022-12-07T02:43:58;2.80;92.40
1415;DHT22;702;49.466;11.086;2022-12-07T02:46:31;2.90;92.70
1415;DHT22;702;49.466;11.086;2022-12-07T02:49:02;2.80;92.20
1415;DHT22;702;49.466;11.086;2022-12-07T02:51:31;2.90;92.40
1415;DHT22;702;49.466;11.086;2022-12-07T02:53:58;2.90;92.00
1415;DHT22;702;49.466;11.086;2022-12-07T02:56:33;2.90;92.20
1415;DHT22;702;49.466;11.086;2022-12-07T02:59:28;3.00;91.50
1415;DHT22;702;49.466;11.086;2022-12-07T03:02:09;2.90;91.70
1415;DHT22;702;49.466;11.086;2022-12-07T03:04:45;2.90;91.40
1415;DHT22;702;49.466;11.086;2022-12-07T03:07:26;2.70;91.60
1415;DHT22;702;49.466;11.086;2022-12-07T03:10:03;2.50;92.10
1415;DHT22;702;49.466;11.086;2022-12-07T03:12:40;2.40;92.90
1415;DHT22;702;49.466;11.086;2022-12-07T03:15:15;2.20;93.30
1415;DHT22;702;49.466;11.086;2022-12-07T03:17:48;2.20;94.80
1415;DHT22;702;49.466;11.086;2022-12-07T03:20:18;2.20;95.40
1415;DHT22;702;49.466;11.086;2022-12-07T03:22:48;2.20;96.10
1415;DHT22;702;49.466;11.086;2022-12-07T03:25:17;2.30;95.50
1415;DHT22;702;49.466;11.086;2022-12-07T03:27:51;2.30;95.90
1415;DHT22;702;49.466;11.086;2022-12-07T03:30:24;2.20;95.90
1415;DHT22;702;49.466;11.086;2022-12-07T03:32:59;2.20;96.20
1415;DHT22;702;49.466;11.086;2022-12-07T03:35:32;2.30;95.90
1415;DHT22;702;49.466;11.086;2022-12-07T03:38:08;2.30;95.10
1415;DHT22;702;49.466;11.086;2022-12-07T03:40:44;2.30;94.90
1415;DHT22;702;49.466;11.086;2022-12-07T03:43:16;2.40;94.30
1415;DHT22;702;49.466;11.086;2022-12-07T03:45:58;2.40;94.20
1415;DHT22;702;49.466;11.086;2022-12-07T03:48:34;2.40;93.40
1415;DHT22;702;49.466;11.086;2022-12-07T03:51:11;2.40;93.10
1415;DHT22;702;49.466;11.086;2022-12-07T03:53:46;2.30;92.40
1415;DHT22;702;49.466;11.086;2022-12-07T03:56:17;2.10;92.50
1415;DHT22;702;49.466;11.086;2022-12-07T03:58:45;2.00;93.20
1415;DHT22;702;49.466;11.086;2022-12-07T04:01:13;1.90;94.20
1415;DHT22;702;49.466;11.086;2022-12-07T04:03:41;1.80;94.70
1415;DHT22;702;49.466;11.086;2022-12-07T04:06:09;1.70;94.90
1415;DHT22;702;49.466;11.086;2022-12-07T04:08:36;1.60;94.80
1415;DHT22;702;49.466;11.086;2022-12-07T04:11:04;1.50;95.30
1415;DHT22;702;49.466;11.086;2022-12-07T04:13:31;1.40;96.10
1415;DHT22;702;49.466;11.086;2022-12-07T04:16:18;1.30;97.30
1415;DHT22;702;49.466;11.086;2022-12-07T04:18:47;1.30;99.10
1415;DHT22;702;49.466;11.086;2022-12-07T04:21:14;1.30;99.30
1415;DHT22;702;49.466;11.086;2022-12-07T04:23:42;1.30;99.90
1415;DHT22;702;49.466;11.086;2022-12-07T04:26:09;1.20;99.90
1415;DHT22;702;49.466;11.086;2022-12-07T04:28:36;1.20;99.90
1415;DHT22;702;49.466;11.086;2022-12-07T04:31:04;1.30;99.90
1415;DHT22;702;49.466;11.086;2022-12-07T04:33:31;1.40;99.90
1415;DHT22;702;49.466;11.086;2022-12-07T04:36:00;1.40;99.90
1415;DHT22;702;49.466;11.086;2022-12-07T04:38:28;1.40;99.90
1415;DHT22;702;49.466;11.086;2022-12-07T04:40:55;1.50;99.90
1415;DHT22;702;49.466;11.086;2022-12-07T04:43:22;1.70;99.90
1415;DHT22;702;49.466;11.086;2022-12-07T04:45:50;1.70;99.90
1415;DHT22;702;49.466;11.086;2022-12-07T04:48:17;1.70;99.90
1415;DHT22;702;49.466;11.086;2022-12-07T04:50:44;1.80;99.10
1415;DHT22;702;49.466;11.086;2022-12-07T04:53:18;1.70;98.00
1415;DHT22;702;49.466;11.086;2022-12-07T04:55:46;1.80;98.50
1415;DHT22;702;49.466;11.086;2022-12-07T04:58:13;1.80;98.20
1415;DHT22;702;49.466;11.086;2022-12-07T05:00:42;1.90;97.10
1415;DHT22;702;49.466;11.086;2022-12-07T05:03:09;2.00;95.60
1415;DHT22;702;49.466;11.086;2022-12-07T05:05:39;2.00;95.40
1415;DHT22;702;49.466;11.086;2022-12-07T05:08:07;2.00;94.80
1415;DHT22;702;49.466;11.086;2022-12-07T05:10:36;2.00;94.30
1415;DHT22;702;49.466;11.086;2022-12-07T05:13:03;2.00;94.80
1415;DHT22;702;49.466;11.086;2022-12-07T05:15:30;2.00;94.30
1415;DHT22;702;49.466;11.086;2022-12-07T05:17:57;2.10;93.90
1415;DHT22;702;49.466;11.086;2022-12-07T05:20:25;2.10;93.60
1415;DHT22;702;49.466;11.086;2022-12-07T05:22:53;2.10;93.50
1415;DHT22;702;49.466;11.086;2022-12-07T05:25:21;2.10;93.90
1415;DHT22;702;49.466;11.086;2022-12-07T05:27:49;2.20;92.80
1415;DHT22;702;49.466;11.086;2022-12-07T05:30:16;2.10;93.00
1415;DHT22;702;49.466;11.086;2022-12-07T05:32:44;2.20;92.50
1415;DHT22;702;49.466;11.086;2022-12-07T05:35:11;2.20;92.80
1415;DHT22;702;49.466;11.086;2022-12-07T05:37:38;2.30;91.80
1415;DHT22;702;49.466;11.086;2022-12-07T05:40:06;2.20;91.80
1415;DHT22;702;49.466;11.086;2022-12-07T05:42:34;2.30;91.90
1415;DHT22;702;49.466;11.086;2022-12-07T05:45:05;2.30;91.80
1415;DHT22;702;49.466;11.086;2022-12-07T05:47:33;2.30;91.70
1415;DHT22;702;49.466;11.086;2022-12-07T05:50:01;2.30;91.50
1415;DHT22;702;49.466;11.086;2022-12-07T05:52:28;2.30;91.10
1415;DHT22;702;49.466;11.086;2022-12-07T05:54:55;2.40;90.80
1415;DHT22;702;49.466;11.086;2022-12-07T05:57:22;2.30;91.30
1415;DHT22;702;49.466;11.086;2022-12-07T05:59:49;2.40;91.30
1415;DHT22;702;49.466;11.086;2022-12-07T06:02:17;2.30;90.90
1415;DHT22;702;49.466;11.086;2022-12-07T06:04:45;2.40;90.90
1415;DHT22;702;49.466;11.086;2022-12-07T06:07:16;2.40;90.80
1415;DHT22;702;49.466;11.086;2022-12-07T06:09:43;2.50;90.20
1415;DHT22;702;49.466;11.086;2022-12-07T06:12:11;2.40;90.50
1415;DHT22;702;49.466;11.086;2022-12-07T06:14:56;2.50;90.00
1415;DHT22;702;49.466;11.086;2022-12-07T06:17:25;2.50;89.20
1415;DHT22;702;49.466;11.086;2022-12-07T06:19:53;2.50;89.90
1415;DHT22;702;49.466;11.086;2022-12-07T06:22:20;2.50;89.60
1415;DHT22;702;49.466;11.086;2022-12-07T06:24:47;2.50;89.20
1415;DHT22;702;49.466;11.086;2022-12-07T06:27:14;2.50;88.90
1415;DHT22;702;49.466;11.086;2022-12-07T06:29:42;2.50;88.40
1415;DHT22;702;49.466;11.086;2022-12-07T06:32:09;2.50;89.20
1415;DHT22;702;49.466;11.086;2022-12-07T06:34:38;2.60;89.00
1415;DHT22;702;49.466;11.086;2022-12-07T06:37:06;2.60;88.90
1415;DHT22;702;49.466;11.086;2022-12-07T06:39:33;2.60;89.50
1415;DHT22;702;49.466;11.086;2022-12-07T06:42:00;2.70;88.00
1415;DHT22;702;49.466;11.086;2022-12-07T06:44:28;2.70;87.60
1415;DHT22;702;49.466;11.086;2022-12-07T06:46:55;2.60;88.30
1415;DHT22;702;49.466;11.086;2022-12-07T06:49:22;2.70;87.80
1415;DHT22;702;49.466;11.086;2022-12-07T06:51:51;2.70;87.70
1415;DHT22;702;49.466;11.086;2022-12-07T06:54:18;2.70;88.40
1415;DHT22;702;49.466;11.086;2022-12-07T06:56:45;2.70;88.00
1415;DHT22;702;49.466;11.086;2022-12-07T06:59:13;2.70;87.50
1415;DHT22;702;49.466;11.086;2022-12-07T07:01:40;2.80;87.70
1415;DHT22;702;49.466;11.086;2022-12-07T07:04:07;2.90;86.60
1415;DHT22;702;49.466;11.086;2022-12-07T07:06:35;2.90;86.30
1415;DHT22;702;49.466;11.086;2022-12-07T07:09:04;2.80;87.70
1415;DHT22;702;49.466;11.086;2022-12-07T07:11:32;2.90;87.10
1415;DHT22;702;49.466;11.086;2022-12-07T07:14:01;3.00;88.40
1415;DHT22;702;49.466;11.086;2022-12-07T07:16:29;3.00;86.50
1415;DHT22;702;49.466;11.086;2022-12-07T07:18:57;3.00;87.50
1415;DHT22;702;49.466;11.086;2022-12-07T07:21:24;3.00;85.10
1415;DHT22;702;49.466;11.086;2022-12-07T07:23:51;3.10;86.80
1415;DHT22;702;49.466;11.086;2022-12-07T07:26:20;3.10;84.90
1415;DHT22;702;49.466;11.086;2022-12-07T07:28:47;3.00;84.70
1415;DHT22;702;49.466;11.086;2022-12-07T07:31:15;3.00;85.10
1415;DHT22;702;49.466;11.086;2022-12-07T07:33:42;3.10;84.60
1415;DHT22;702;49.466;11.086;2022-12-07T07:36:09;3.10;84.80
1415;DHT22;702;49.466;11.086;2022-12-07T07:38:36;3.10;84.70
1415;DHT22;702;49.466;11.086;2022-12-07T07:41:03;3.00;84.40
1415;DHT22;702;49.466;11.086;2022-12-07T07:43:32;3.10;85.40
1415;DHT22;702;49.466;11.086;2022-12-07T07:46:01;3.30;84.20
1415;DHT22;702;49.466;11.086;2022-12-07T07:48:28;3.30;84.30
1415;DHT22;702;49.466;11.086;2022-12-07T07:50:55;3.30;83.70
1415;DHT22;702;49.466;11.086;2022-12-07T07:53:23;3.30;83.00
1415;DHT22;702;49.466;11.086;2022-12-07T07:55:51;3.30;83.40
1415;DHT22;702;49.466;11.086;2022-12-07T07:58:19;3.30;83.90
1415;DHT22;702;49.466;11.086;2022-12-07T08:00:48;3.40;83.70
1415;DHT22;702;49.466;11.086;2022-12-07T08:03:16;3.50;83.30
1415;DHT22;702;49.466;11.086;2022-12-07T08:05:43;3.50;83.10
1415;DHT22;702;49.466;11.086;2022-12-07T08:08:11;3.50;83.10
1415;DHT22;702;49.466;11.086;2022-12-07T08:10:38;3.60;83.40
1415;DHT22;702;49.466;11.086;2022-12-07T08:13:05;3.60;83.10
1415;DHT22;702;49.466;11.086;2022-12-07T08:15:40;3.60;83.00
1415;DHT22;702;49.466;11.086;2022-12-07T08:18:10;3.60;82.60
1415;DHT22;702;49.466;11.086;2022-12-07T08:20:38;3.50;82.60
1415;DHT22;702;49.466;11.086;2022-12-07T08:23:06;3.50;82.80
1415;DHT22;702;49.466;11.086;2022-12-07T08:25:34;3.60;82.90
1415;DHT22;702;49.466;11.086;2022-12-07T08:28:02;3.60;82.90
1415;DHT22;702;49.466;11.086;2022-12-07T08:30:30;3.50;82.80
1415;DHT22;702;49.466;11.086;2022-12-07T08:32:58;3.60;83.00
1415;DHT22;702;49.466;11.086;2022-12-07T08:35:27;3.70;83.20
1415;DHT22;702;49.466;11.086;2022-12-07T08:37:54;3.70;82.60
1415;DHT22;702;49.466;11.086;2022-12-07T08:40:23;3.70;82.60
1415;DHT22;702;49.466;11.086;2022-12-07T08:42:50;3.60;83.00
1415;DHT22;702;49.466;11.086;2022-12-07T08:45:19;3.70;82.80
1415;DHT22;702;49.466;11.086;2022-12-07T08:47:50;3.80;82.60
1415;DHT22;702;49.466;11.086;2022-12-07T08:50:22;3.70;82.50
1415;DHT22;702;49.466;11.086;2022-12-07T08:52:53;3.70;82.50
1415;DHT22;702;49.466;11.086;2022-12-07T08:55:22;3.70;82.80
1415;DHT22;702;49.466;11.086;2022-12-07T08:57:50;3.80;82.60
1415;DHT22;702;49.466;11.086;2022-12-07T09:00:18;3.80;82.60
1415;DHT22;702;49.466;11.086;2022-12-07T09:02:45;3.80;82.40
1415;DHT22;702;49.466;11.086;2022-12-07T09:05:13;3.70;82.30
1415;DHT22;702;49.466;11.086;2022-12-07T09:07:42;3.80;82.70
1415;DHT22;702;49.466;11.086;2022-12-07T09:10:12;3.80;82.30
1415;DHT22;702;49.466;11.086;2022-12-07T09:12:39;3.70;82.20
1415;DHT22;702;49.466;11.086;2022-12-07T09:15:07;3.70;82.20
1415;DHT22;702;49.466;11.086;2022-12-07T09:17:35;3.80;82.30
1415;DHT22;702;49.466;11.086;2022-12-07T09:20:04;3.80;82.30
1415;DHT22;702;49.466;11.086;2022-12-07T09:22:33;3.90;82.70
1415;DHT22;702;49.466;11.086;2022-12-07T09:25:01;3.90;82.80
1415;DHT22;702;49.466;11.086;2022-12-07T09:27:30;4.00;82.60
1415;DHT22;702;49.466;11.086;2022-12-07T09:29:58;3.90;82.90
1415;DHT22;702;49.466;11.086;2022-12-07T09:32:25;3.80;83.30
1415;DHT22;702;49.466;11.086;2022-12-07T09:34:52;3.70;83.60
1415;DHT22;702;49.466;11.086;2022-12-07T09:37:20;3.80;83.60
1415;DHT22;702;49.466;11.086;2022-12-07T09:39:47;3.80;83.80
1415;DHT22;702;49.466;11.086;2022-12-07T09:42:26;3.70;83.20
1415;DHT22;702;49.466;11.086;2022-12-07T09:44:57;3.70;83.70
1415;DHT22;702;49.466;11.086;2022-12-07T09:47:26;3.80;83.90
1415;DHT22;702;49.466;11.086;2022-12-07T09:49:54;3.90;84.10
1415;DHT22;702;49.466;11.086;2022-12-07T09:52:28;3.90;84.10
1415;DHT22;702;49.466;11.086;2022-12-07T09:54:55;3.90;84.00
1415;DHT22;702;49.466;11.086;2022-12-07T09:57:28;3.80;84.00
1415;DHT22;702;49.466;11.086;2022-12-07T10:00:00;3.80;84.60
1415;DHT22;702;49.466;11.086;2022-12-07T10:02:36;3.70;85.00
1415;DHT22;702;49.466;11.086;2022-12-07T10:05:05;3.70;86.10
1415;DHT22;702;49.466;11.086;2022-12-07T10:07:33;3.70;85.80
1415;DHT22;702;49.466;11.086;2022-12-07T10:10:03;3.70;85.90
1415;DHT22;702;49.466;11.086;2022-12-07T10:12:55;3.80;86.00
1415;DHT22;702;49.466;11.086;2022-12-07T10:15:46;3.80;85.20
1415;DHT22;702;49.466;11.086;2022-12-07T10:18:21;3.80;85.00
1415;DHT22;702;49.466;11.086;2022-12-07T10:21:11;3.80;85.10
1415;DHT22;702;49.466;11.086;2022-12-07T10:23:41;4.00;84.80
1415;DHT22;702;49.466;11.086;2022-12-07T10:26:31;4.00;84.30
1415;DHT22;702;49.466;11.086;2022-12-07T10:29:01;4.10;84.00
1415;DHT22;702;49.466;11.086;2022-12-07T10:31:41;4.20;83.70
1415;DHT22;702;49.466;11.086;2022-12-07T10:34:21;4.20;83.10
1415;DHT22;702;49.466;11.086;2022-12-07T10:36:51;4.30;83.30
1415;DHT22;702;49.466;11.086;2022-12-07T10:39:21;4.20;83.40
1415;DHT22;702;49.466;11.086;2022-12-07T10:41:56;4.40;83.30
1415;DHT22;702;49.466;11.086;2022-12-07T10:44:26;4.40;82.80
1415;DHT22;702;49.466;11.086;2022-12-07T10:47:12;4.40;82.60
1415;DHT22;702;49.466;11.086;2022-12-07T10:56:24;4.50;81.90
1415;DHT22;702;49.466;11.086;2022-12-07T10:59:33;4.30;82.20
1415;DHT22;702;49.466;11.086;2022-12-07T11:02:36;4.30;82.80
1415;DHT22;702;49.466;11.086;2022-12-07T11:05:19;4.20;82.30
1415;DHT22;702;49.466;11.086;2022-12-07T11:08:00;4.20;82.80
1415;DHT22;702;49.466;11.086;2022-12-07T11:10:38;4.30;82.60
1415;DHT22;702;49.466;11.086;2022-12-07T11:13:29;4.30;82.80
1415;DHT22;702;49.466;11.086;2022-12-07T11:16:33;4.30;82.80
1415;DHT22;702;49.466;11.086;2022-12-07T11:19:24;4.20;83.20
1415;DHT22;702;49.466;11.086;2022-12-07T11:22:00;4.40;83.00
1415;DHT22;702;49.466;11.086;2022-12-07T11:24:38;4.50;82.10
1415;DHT22;702;49.466;11.086;2022-12-07T11:27:21;4.50;82.40
1415;DHT22;702;49.466;11.086;2022-12-07T11:30:13;4.60;82.70
1415;DHT22;702;49.466;11.086;2022-12-07T11:32:54;4.60;82.60
1415;DHT22;702;49.466;11.086;2022-12-07T11:35:36;4.60;82.60
1415;DHT22;702;49.466;11.086;2022-12-07T11:38:13;4.70;82.50
1415;DHT22;702;49.466;11.086;2022-12-07T11:40:44;4.70;82.30
1415;DHT22;702;49.466;11.086;2022-12-07T11:43:20;4.70;82.10
1415;DHT22;702;49.466;11.086;2022-12-07T11:45:56;4.50;82.50
1415;DHT22;702;49.466;11.086;2022-12-07T11:48:31;4.40;83.00
1415;DHT22;702;49.466;11.086;2022-12-07T11:51:02;4.40;83.60
1415;DHT22;702;49.466;11.086;2022-12-07T11:53:35;4.40;83.40
1415;DHT22;702;49.466;11.086;2022-12-07T11:56:09;4.50;83.70
1415;DHT22;702;49.466;11.086;2022-12-07T11:58:57;4.50;83.50
1415;DHT22;702;49.466;11.086;2022-12-07T12:01:31;4.50;83.20
1415;DHT22;702;49.466;11.086;2022-12-07T12:04:12;4.50;83.10
1415;DHT22;702;49.466;11.086;2022-12-07T12:06:49;4.50;83.40
1415;DHT22;702;49.466;11.086;2022-12-07T12:09:19;4.50;83.60
1415;DHT22;702;49.466;11.086;2022-12-07T12:12:17;4.50;83.50
1415;DHT22;702;49.466;11.086;2022-12-07T12:15:02;4.40;83.40
1415;DHT22;702;49.466;11.086;2022-12-07T12:20:44;4.30;84.20
1415;DHT22;702;49.466;11.086;2022-12-07T12:23:17;4.40;84.00
1415;DHT22;702;49.466;11.086;2022-12-07T12:25:47;4.50;84.00
1415;DHT22;702;49.466;11.086;2022-12-07T12:28:22;4.50;83.70
1415;DHT22;702;49.466;11.086;2022-12-07T12:31:06;4.50;83.60
1415;DHT22;702;49.466;11.086;2022-12-07T12:33:37;4.50;83.50
1415;DHT22;702;49.466;11.086;2022-12-07T12:36:23;4.40;83.30
1415;DHT22;702;49.466;11.086;2022-12-07T12:41:55;4.40;83.50
1415;DHT22;702;49.466;11.086;2022-12-07T12:47:57;4.50;83.30
1415;DHT22;702;49.466;11.086;2022-12-07T12:50:31;4.50;83.10
1415;DHT22;702;49.466;11.086;2022-12-07T12:53:16;4.40;83.20
1415;DHT22;702;49.466;11.086;2022-12-07T12:56:25;4.40;83.50
1415;DHT22;702;49.466;11.086;2022-12-07T12:59:25;4.30;83.40
1415;DHT22;702;49.466;11.086;2022-12-07T13:01:56;4.40;83.90
1415;DHT22;702;49.466;11.086;2022-12-07T13:04:47;4.40;84.00
1415;DHT22;702;49.466;11.086;2022-12-07T13:07:53;4.40;84.30
1415;DHT22;702;49.466;11.086;2022-12-07T13:10:40;4.50;84.40
1415;DHT22;702;49.466;11.086;2022-12-07T13:13:29;4.40;84.20
1415;DHT22;702;49.466;11.086;2022-12-07T13:16:38;4.40;83.90
1415;DHT22;702;49.466;11.086;2022-12-07T13:22:53;4.20;83.50
1415;DHT22;702;49.466;11.086;2022-12-07T13:25:34;4.20;85.30
1415;DHT22;702;49.466;11.086;2022-12-07T13:28:13;4.20;86.10
1415;DHT22;702;49.466;11.086;2022-12-07T13:30:47;4.20;87.10
1415;DHT22;702;49.466;11.086;2022-12-07T13:33:22;4.20;86.30
1415;DHT22;702;49.466;11.086;2022-12-07T13:35:54;4.10;85.90
1415;DHT22;702;49.466;11.086;2022-12-07T13:38:28;4.10;85.70
1415;DHT22;702;49.466;11.086;2022-12-07T13:41:01;4.10;86.20
1415;DHT22;702;49.466;11.086;2022-12-07T13:43:43;4.10;85.30
1415;DHT22;702;49.466;11.086;2022-12-07T13:46:12;4.10;84.50
1415;DHT22;702;49.466;11.086;2022-12-07T13:48:46;4.10;84.80
1415;DHT22;702;49.466;11.086;2022-12-07T13:51:21;4.10;84.90
1415;DHT22;702;49.466;11.086;2022-12-07T13:53:52;4.10;84.40
1415;DHT22;702;49.466;11.086;2022-12-07T13:56:24;4.10;84.80
1415;DHT22;702;49.466;11.086;2022-12-07T13:58:53;4.10;85.10
1415;DHT22;702;49.466;11.086;2022-12-07T14:01:21;4.10;84.50
1415;DHT22;702;49.466;11.086;2022-12-07T14:03:50;4.10;84.10
1415;DHT22;702;49.466;11.086;2022-12-07T14:06:24;4.20;84.20
1415;DHT22;702;49.466;11.086;2022-12-07T14:09:07;4.10;84.10
1415;DHT22;702;49.466;11.086;2022-12-07T14:11:36;4.20;84.00
1415;DHT22;702;49.466;11.086;2022-12-07T14:14:05;4.20;83.70
1415;DHT22;702;49.466;11.086;2022-12-07T14:16:34;4.20;83.50
1415;DHT22;702;49.466;11.086;2022-12-07T14:19:05;4.20;83.50
1415;DHT22;702;49.466;11.086;2022-12-07T14:22:07;4.30;83.80
1415;DHT22;702;49.466;11.086;2022-12-07T14:24:42;4.30;84.00
1415;DHT22;702;49.466;11.086;2022-12-07T14:27:18;4.40;83.80
1415;DHT22;702;49.466;11.086;2022-12-07T14:29:46;4.50;83.70
1415;DHT22;702;49.466;11.086;2022-12-07T14:32:20;4.60;87.10
1415;DHT22;702;49.466;11.086;2022-12-07T14:35:08;4.50;84.40
1415;DHT22;702;49.466;11.086;2022-12-07T14:37:40;4.30;82.60
1415;DHT22;702;49.466;11.086;2022-12-07T14:40:14;4.10;81.80
1415;DHT22;702;49.466;11.086;2022-12-07T14:42:46;4.00;83.00
1415;DHT22;702;49.466;11.086;2022-12-07T14:45:16;3.80;84.00
1415;DHT22;702;49.466;11.086;2022-12-07T14:47:46;3.70;86.40
1415;DHT22;702;49.466;11.086;2022-12-07T14:50:14;3.30;88.40
1415;DHT22;702;49.466;11.086;2022-12-07T14:52:48;3.20;90.30
1415;DHT22;702;49.466;11.086;2022-12-07T14:55:23;3.00;91.50
1415;DHT22;702;49.466;11.086;2022-12-07T14:57:52;3.10;93.00
1415;DHT22;702;49.466;11.086;2022-12-07T15:00:21;3.10;93.10
1415;DHT22;702;49.466;11.086;2022-12-07T15:02:49;3.00;93.60
1415;DHT22;702;49.466;11.086;2022-12-07T15:05:18;2.90;94.60
1415;DHT22;702;49.466;11.086;2022-12-07T15:07:48;2.90;95.30
1415;DHT22;702;49.466;11.086;2022-12-07T15:10:18;2.90;96.10
1415;DHT22;702;49.466;11.086;2022-12-07T15:12:46;2.90;96.90
1415;DHT22;702;49.466;11.086;2022-12-07T15:15:14;2.90;97.30
1415;DHT22;702;49.466;11.086;2022-12-07T15:17:43;2.90;97.50
1415;DHT22;702;49.466;11.086;2022-12-07T15:20:12;2.90;97.70
1415;DHT22;702;49.466;11.086;2022-12-07T15:22:42;2.80;98.60
1415;DHT22;702;49.466;11.086;2022-12-07T15:25:14;2.90;99.90
1415;DHT22;702;49.466;11.086;2022-12-07T15:27:42;3.10;99.90
1415;DHT22;702;49.466;11.086;2022-12-07T15:30:09;3.20;98.70
1415;DHT22;702;49.466;11.086;2022-12-07T15:32:37;3.20;97.80
1415;DHT22;702;49.466;11.086;2022-12-07T15:35:04;3.20;98.00
1415;DHT22;702;49.466;11.086;2022-12-07T15:37:32;3.30;97.40
1415;DHT22;702;49.466;11.086;2022-12-07T15:39:59;3.40;95.40
1415;DHT22;702;49.466;11.086;2022-12-07T15:42:28;3.40;94.30
1415;DHT22;702;49.466;11.086;2022-12-07T15:44:55;3.40;94.30
1415;DHT22;702;49.466;11.086;2022-12-07T15:47:31;3.40;94.20
1415;DHT22;702;49.466;11.086;2022-12-07T15:49:58;3.40;93.40
1415;DHT22;702;49.466;11.086;2022-12-07T15:52:25;3.50;93.00
1415;DHT22;702;49.466;11.086;2022-12-07T15:54:53;3.50;93.10
1415;DHT22;702;49.466;11.086;2022-12-07T15:57:20;3.50;92.90
1415;DHT22;702;49.466;11.086;2022-12-07T15:59:49;3.60;93.20
1415;DHT22;702;49.466;11.086;2022-12-07T16:02:16;3.50;93.00
1415;DHT22;702;49.466;11.086;2022-12-07T16:04:43;3.50;92.60
1415;DHT22;702;49.466;11.086;2022-12-07T16:07:11;3.60;93.00
1415;DHT22;702;49.466;11.086;2022-12-07T16:09:41;3.60;93.00
1415;DHT22;702;49.466;11.086;2022-12-07T16:12:09;3.60;92.20
1415;DHT22;702;49.466;11.086;2022-12-07T16:14:37;3.70;91.90
1415;DHT22;702;49.466;11.086;2022-12-07T16:17:07;3.70;92.00
1415;DHT22;702;49.466;11.086;2022-12-07T16:19:35;3.60;91.70
1415;DHT22;702;49.466;11.086;2022-12-07T16:22:04;3.70;92.20
1415;DHT22;702;49.466;11.086;2022-12-07T16:24:32;3.60;92.50
1415;DHT22;702;49.466;11.086;2022-12-07T16:27:00;3.60;92.20
1415;DHT22;702;49.466;11.086;2022-12-07T16:29:28;3.70;91.70
1415;DHT22;702;49.466;11.086;2022-12-07T16:31:55;3.70;92.00
1415;DHT22;702;49.466;11.086;2022-12-07T16:34:24;3.70;92.30
1415;DHT22;702;49.466;11.086;2022-12-07T16:36:51;3.70;91.70
1415;DHT22;702;49.466;11.086;2022-12-07T16:39:18;3.60;91.00
1415;DHT22;702;49.466;11.086;2022-12-07T16:41:45;3.60;91.20
1415;DHT22;702;49.466;11.086;2022-12-07T16:44:13;3.60;91.90
1415;DHT22;702;49.466;11.086;2022-12-07T16:46:40;3.50;92.20
1415;DHT22;702;49.466;11.086;2022-12-07T16:49:11;3.50;92.70
1415;DHT22;702;49.466;11.086;2022-12-07T16:51:40;3.50;92.50
1415;DHT22;702;49.466;11.086;2022-12-07T16:54:10;3.40;92.40
1415;DHT22;702;49.466;11.086;2022-12-07T16:56:38;3.30;93.00
1415;DHT22;702;49.466;11.086;2022-12-07T16:59:05;3.30;93.20
1415;DHT22;702;49.466;11.086;2022-12-07T17:01:33;3.30;93.70
1415;DHT22;702;49.466;11.086;2022-12-07T17:04:01;3.30;94.30
1415;DHT22;702;49.466;11.086;2022-12-07T17:06:30;3.40;93.30